createdAt,value
2017-07-14T00:00:03.155Z,0
2017-07-14T00:00:43.686Z,0
2017-07-14T00:01:24.215Z,0
2017-07-14T00:02:04.750Z,0
2017-07-14T00:02:45.281Z,0
2017-07-14T00:03:25.810Z,0
2017-07-14T00:04:06.366Z,0
2017-07-14T00:04:46.903Z,0
2017-07-14T00:05:27.425Z,0
2017-07-14T00:06:07.959Z,0
2017-07-14T00:06:48.493Z,0
2017-07-14T00:07:29.019Z,0
2017-07-14T00:08:09.524Z,0
2017-07-14T00:08:50.068Z,0
2017-07-14T00:09:30.595Z,0
2017-07-14T00:10:11.113Z,0
2017-07-14T00:10:51.639Z,0
2017-07-14T00:11:32.171Z,0
2017-07-14T00:12:12.705Z,0
2017-07-14T00:12:53.248Z,0
2017-07-14T00:13:33.769Z,0
2017-07-14T00:14:14.292Z,0
2017-07-14T00:14:54.823Z,0
2017-07-14T00:15:35.362Z,0
2017-07-14T00:16:15.902Z,0
2017-07-14T00:16:56.442Z,0
2017-07-14T00:17:36.969Z,0
2017-07-14T00:18:17.495Z,0
2017-07-14T00:18:58.033Z,0
2017-07-14T00:19:38.564Z,0
2017-07-14T00:20:19.109Z,0
2017-07-14T00:20:59.656Z,0
2017-07-14T00:21:40.190Z,0
2017-07-14T00:22:20.729Z,0
2017-07-14T00:23:01.272Z,0
2017-07-14T00:23:41.765Z,0
2017-07-14T00:24:22.404Z,0
2017-07-14T00:25:02.881Z,0
2017-07-14T00:25:43.418Z,0
2017-07-14T00:26:23.956Z,0
2017-07-14T00:27:04.497Z,0
2017-07-14T00:27:45.036Z,0
2017-07-14T00:28:25.561Z,0
2017-07-14T00:29:06.095Z,0
2017-07-14T00:29:46.631Z,0
2017-07-14T00:30:27.157Z,0
2017-07-14T00:31:07.693Z,0
2017-07-14T00:31:48.232Z,0
2017-07-14T00:32:28.776Z,0
2017-07-14T00:33:09.280Z,0
2017-07-14T00:33:49.817Z,0
2017-07-14T00:34:30.365Z,0
2017-07-14T00:35:10.928Z,0
2017-07-14T00:35:51.467Z,0
2017-07-14T00:36:32.007Z,0
2017-07-14T00:37:12.535Z,0
2017-07-14T00:37:53.080Z,0
2017-07-14T00:38:33.618Z,0
2017-07-14T00:39:14.145Z,0
2017-07-14T00:39:54.680Z,0
2017-07-14T00:40:35.221Z,0
2017-07-14T00:41:15.746Z,0
2017-07-14T00:41:56.263Z,0
2017-07-14T00:42:36.797Z,0
2017-07-14T00:43:17.333Z,0
2017-07-14T00:43:57.872Z,0
2017-07-14T00:44:38.401Z,0
2017-07-14T00:45:18.962Z,0
2017-07-14T00:45:59.493Z,0
2017-07-14T00:46:40.043Z,0
2017-07-14T00:47:20.590Z,0
2017-07-14T00:48:01.143Z,0
2017-07-14T00:48:41.648Z,0
2017-07-14T00:49:22.188Z,0
2017-07-14T00:50:02.726Z,0
2017-07-14T00:50:43.250Z,0
2017-07-14T00:51:23.801Z,0
2017-07-14T00:52:04.370Z,0
2017-07-14T00:52:44.896Z,0
2017-07-14T00:53:25.438Z,0
2017-07-14T00:54:05.945Z,0
2017-07-14T00:54:46.480Z,0
2017-07-14T00:55:27.003Z,0
2017-07-14T00:56:07.529Z,0
2017-07-14T00:56:48.052Z,0
2017-07-14T00:57:28.591Z,0
2017-07-14T00:58:09.146Z,0
2017-07-14T00:58:49.682Z,0
2017-07-14T00:59:30.196Z,0
2017-07-14T01:00:10.729Z,0
2017-07-14T01:00:51.264Z,0
2017-07-14T01:01:31.794Z,0
2017-07-14T01:02:12.335Z,0
2017-07-14T01:02:52.872Z,0
2017-07-14T01:03:33.402Z,0
2017-07-14T01:04:13.952Z,0
2017-07-14T01:04:54.469Z,0
2017-07-14T01:05:35.005Z,0
2017-07-14T01:06:15.550Z,0
2017-07-14T01:06:56.089Z,0
2017-07-14T01:07:36.663Z,0
2017-07-14T01:08:17.199Z,0
2017-07-14T01:08:57.712Z,0
2017-07-14T01:09:38.236Z,0
2017-07-14T01:10:18.781Z,0
2017-07-14T01:10:59.285Z,0
2017-07-14T01:11:39.814Z,0
2017-07-14T01:12:20.329Z,0
2017-07-14T01:13:00.890Z,0
2017-07-14T01:13:41.427Z,0
2017-07-14T01:14:21.958Z,0
2017-07-14T01:15:02.497Z,0
2017-07-14T01:15:43.025Z,0
2017-07-14T01:16:23.567Z,0
2017-07-14T01:17:04.069Z,0
2017-07-14T01:17:44.587Z,0
2017-07-14T01:18:25.118Z,0
2017-07-14T01:19:05.664Z,0
2017-07-14T01:19:46.202Z,0
2017-07-14T01:20:26.712Z,0
2017-07-14T01:21:07.268Z,0
2017-07-14T01:21:47.773Z,0
2017-07-14T01:22:28.325Z,0
2017-07-14T01:23:08.873Z,0
2017-07-14T01:23:49.380Z,0
2017-07-14T01:24:29.913Z,0
2017-07-14T01:25:10.454Z,0
2017-07-14T01:25:50.984Z,0
2017-07-14T01:26:31.615Z,0
2017-07-14T01:27:12.135Z,0
2017-07-14T01:27:52.658Z,0
2017-07-14T01:28:33.283Z,0
2017-07-14T01:29:13.751Z,0
2017-07-14T01:29:54.282Z,0
2017-07-14T01:30:34.828Z,0
2017-07-14T01:31:15.365Z,0
2017-07-14T01:31:55.859Z,0
2017-07-14T01:32:36.398Z,0
2017-07-14T01:33:16.940Z,0
2017-07-14T01:33:57.463Z,0
2017-07-14T01:34:37.972Z,0
2017-07-14T01:35:18.506Z,0
2017-07-14T01:35:59.037Z,0
2017-07-14T01:36:39.586Z,0
2017-07-14T01:37:20.120Z,0
2017-07-14T01:38:00.679Z,0
2017-07-14T01:38:41.187Z,0
2017-07-14T01:39:21.729Z,0
2017-07-14T01:40:02.269Z,0
2017-07-14T01:40:42.785Z,0
2017-07-14T01:41:23.303Z,0
2017-07-14T01:42:03.821Z,0
2017-07-14T01:42:44.367Z,0
2017-07-14T01:43:24.886Z,0
2017-07-14T01:44:05.409Z,0
2017-07-14T01:44:45.947Z,0
2017-07-14T01:45:26.462Z,0
2017-07-14T01:46:07.018Z,0
2017-07-14T01:46:47.536Z,0
2017-07-14T01:47:28.085Z,0
2017-07-14T01:48:08.639Z,0
2017-07-14T01:48:49.178Z,0
2017-07-14T01:49:29.726Z,0
2017-07-14T01:50:10.255Z,0
2017-07-14T01:50:50.741Z,0
2017-07-14T01:51:31.229Z,0
2017-07-14T01:52:11.770Z,0
2017-07-14T01:52:52.399Z,0
2017-07-14T01:53:32.890Z,0
2017-07-14T01:54:13.419Z,0
2017-07-14T01:54:53.907Z,0
2017-07-14T01:55:34.420Z,0
2017-07-14T01:56:14.949Z,0
2017-07-14T01:56:55.470Z,0
2017-07-14T01:57:35.987Z,0
2017-07-14T01:58:16.524Z,0
2017-07-14T01:58:57.080Z,0
2017-07-14T01:59:37.595Z,0
2017-07-14T02:00:18.146Z,0
2017-07-14T02:00:58.670Z,0
2017-07-14T02:01:39.202Z,0
2017-07-14T02:02:19.729Z,0
2017-07-14T02:03:00.254Z,0
2017-07-14T02:03:40.796Z,0
2017-07-14T02:04:21.307Z,0
2017-07-14T02:05:01.823Z,0
2017-07-14T02:05:42.324Z,0
2017-07-14T02:06:22.834Z,0
2017-07-14T02:07:03.346Z,0
2017-07-14T02:07:43.835Z,0
2017-07-14T02:08:24.347Z,0
2017-07-14T02:09:04.894Z,0
2017-07-14T02:09:45.382Z,0
2017-07-14T02:10:25.884Z,0
2017-07-14T02:11:06.373Z,0
2017-07-14T02:11:46.898Z,0
2017-07-14T02:12:27.401Z,0
2017-07-14T02:13:07.932Z,0
2017-07-14T02:13:48.466Z,0
2017-07-14T02:14:28.987Z,0
2017-07-14T02:15:09.528Z,0
2017-07-14T02:15:50.019Z,0
2017-07-14T02:16:30.507Z,0
2017-07-14T02:17:11.017Z,0
2017-07-14T02:17:51.535Z,0
2017-07-14T02:18:32.029Z,0
2017-07-14T02:19:12.549Z,0
2017-07-14T02:19:53.096Z,0
2017-07-14T02:20:33.621Z,0
2017-07-14T02:21:14.160Z,0
2017-07-14T02:21:54.697Z,0
2017-07-14T02:22:35.236Z,0
2017-07-14T02:23:22.470Z,0
2017-07-14T02:24:02.998Z,0
2017-07-14T02:24:43.538Z,0
2017-07-14T02:25:24.054Z,0
2017-07-14T02:26:04.569Z,0
2017-07-14T02:26:45.074Z,0
2017-07-14T02:27:25.592Z,0
2017-07-14T02:28:06.101Z,0
2017-07-14T02:28:46.613Z,0
2017-07-14T02:29:27.125Z,0
2017-07-14T02:30:07.665Z,0
2017-07-14T02:30:48.207Z,0
2017-07-14T02:31:28.742Z,0
2017-07-14T02:32:09.279Z,0
2017-07-14T02:32:49.816Z,0
2017-07-14T02:33:30.365Z,0
2017-07-14T02:34:10.910Z,0
2017-07-14T02:34:51.453Z,0
2017-07-14T02:35:31.991Z,0
2017-07-14T02:36:12.564Z,0
2017-07-14T02:36:53.112Z,0
2017-07-14T02:37:33.640Z,0
2017-07-14T02:38:14.172Z,0
2017-07-14T02:38:54.710Z,0
2017-07-14T02:39:35.263Z,0
2017-07-14T02:40:15.799Z,0
2017-07-14T02:40:56.335Z,0
2017-07-14T02:41:36.879Z,0
2017-07-14T02:42:17.417Z,0
2017-07-14T02:42:57.969Z,0
2017-07-14T02:43:38.499Z,0
2017-07-14T02:44:19.029Z,0
2017-07-14T02:44:59.567Z,0
2017-07-14T02:45:40.106Z,0
2017-07-14T02:46:20.627Z,0
2017-07-14T02:47:01.152Z,0
2017-07-14T02:47:41.688Z,0
2017-07-14T02:48:22.225Z,0
2017-07-14T02:49:02.761Z,0
2017-07-14T02:49:43.290Z,0
2017-07-14T02:50:23.883Z,0
2017-07-14T02:51:04.421Z,0
2017-07-14T02:51:44.960Z,0
2017-07-14T02:52:25.483Z,0
2017-07-14T02:53:06.027Z,0
2017-07-14T02:53:46.572Z,0
2017-07-14T02:54:27.110Z,0
2017-07-14T02:55:07.650Z,0
2017-07-14T02:55:48.190Z,0
2017-07-14T02:56:28.731Z,0
2017-07-14T02:57:09.267Z,0
2017-07-14T02:57:49.803Z,0
2017-07-14T02:58:30.336Z,0
2017-07-14T02:59:10.862Z,0
2017-07-14T02:59:51.394Z,0
2017-07-14T03:00:31.981Z,0
2017-07-14T03:01:12.497Z,0
2017-07-14T03:01:53.037Z,0
2017-07-14T03:02:33.581Z,0
2017-07-14T03:03:14.124Z,0
2017-07-14T03:03:54.657Z,0
2017-07-14T03:04:35.167Z,0
2017-07-14T03:05:15.709Z,0
2017-07-14T03:05:56.247Z,0
2017-07-14T03:06:36.786Z,0
2017-07-14T03:07:17.327Z,4
2017-07-14T03:07:57.853Z,4
2017-07-14T03:08:38.394Z,4
2017-07-14T03:09:18.903Z,4
2017-07-14T03:09:59.435Z,4
2017-07-14T03:10:39.968Z,0
2017-07-14T03:11:20.513Z,4
2017-07-14T03:12:01.050Z,0
2017-07-14T03:12:41.600Z,4
2017-07-14T03:13:22.115Z,4
2017-07-14T03:14:02.653Z,4
2017-07-14T03:14:43.182Z,4
2017-07-14T03:15:23.730Z,4
2017-07-14T03:16:04.259Z,4
2017-07-14T03:16:44.811Z,8
2017-07-14T03:17:25.361Z,4
2017-07-14T03:18:05.934Z,4
2017-07-14T03:18:46.458Z,4
2017-07-14T03:19:27.012Z,4
2017-07-14T03:20:07.573Z,8
2017-07-14T03:20:48.116Z,8
2017-07-14T03:21:28.653Z,8
2017-07-14T03:22:09.180Z,8
2017-07-14T03:22:49.717Z,8
2017-07-14T03:23:30.256Z,12
2017-07-14T03:24:10.789Z,12
2017-07-14T03:24:51.330Z,8
2017-07-14T03:25:31.858Z,12
2017-07-14T03:26:12.391Z,12
2017-07-14T03:26:52.907Z,12
2017-07-14T03:27:33.454Z,16
2017-07-14T03:28:13.977Z,12
2017-07-14T03:28:54.507Z,16
2017-07-14T03:29:35.015Z,16
2017-07-14T03:30:15.534Z,12
2017-07-14T03:30:56.060Z,16
2017-07-14T03:31:36.609Z,12
2017-07-14T03:32:17.172Z,12
2017-07-14T03:32:57.710Z,12
2017-07-14T03:33:38.244Z,16
2017-07-14T03:34:18.781Z,16
2017-07-14T03:34:59.327Z,16
2017-07-14T03:35:39.874Z,16
2017-07-14T03:36:20.402Z,20
2017-07-14T03:37:00.934Z,20
2017-07-14T03:37:41.474Z,20
2017-07-14T03:38:22.035Z,24
2017-07-14T03:39:02.579Z,28
2017-07-14T03:39:43.133Z,32
2017-07-14T03:40:23.672Z,32
2017-07-14T03:41:04.207Z,40
2017-07-14T03:41:44.758Z,44
2017-07-14T03:42:25.269Z,48
2017-07-14T03:43:05.804Z,56
2017-07-14T03:43:46.326Z,64
2017-07-14T03:44:26.856Z,72
2017-07-14T03:45:07.367Z,80
2017-07-14T03:45:47.890Z,84
2017-07-14T03:46:28.432Z,92
2017-07-14T03:47:08.973Z,100
2017-07-14T14:33:13.799Z,3268
2017-07-14T14:33:54.347Z,3540
2017-07-14T14:34:34.872Z,3924
2017-07-14T14:35:15.411Z,4356
2017-07-14T14:35:55.965Z,4784
2017-07-14T14:36:36.507Z,5188
2017-07-14T14:37:17.053Z,5540
2017-07-14T14:37:57.604Z,5940
2017-07-14T14:38:38.165Z,6440
2017-07-14T14:39:18.665Z,7012
2017-07-14T14:39:59.246Z,7656
2017-07-14T14:40:39.798Z,8300
2017-07-14T14:41:20.316Z,8616
2017-07-14T14:42:00.863Z,8664
2017-07-14T14:42:41.369Z,8340
2017-07-14T14:43:21.890Z,7756
2017-07-14T14:44:02.425Z,7508
2017-07-14T14:44:44.930Z,7128
2017-07-14T14:45:28.938Z,6688
2017-07-14T14:46:11.293Z,6184
2017-07-14T14:46:51.856Z,5656
2017-07-14T14:47:32.420Z,5304
2017-07-14T14:48:12.942Z,4940
2017-07-14T14:48:53.476Z,4548
2017-07-14T14:49:34.021Z,4084
2017-07-14T14:50:14.576Z,3628
2017-07-14T14:50:55.106Z,3252
2017-07-14T14:51:35.656Z,2928
2017-07-14T14:52:16.190Z,2684
2017-07-14T14:52:56.716Z,2440
2017-07-14T14:53:37.263Z,2028
2017-07-14T14:54:17.794Z,1500
2017-07-14T14:54:58.322Z,1116
2017-07-14T14:55:38.888Z,856
2017-07-14T14:56:19.428Z,676
2017-07-14T14:57:00.043Z,536
2017-07-14T14:57:40.529Z,448
2017-07-14T14:58:21.079Z,364
2017-07-14T14:59:01.608Z,296
2017-07-14T14:59:42.182Z,260
2017-07-14T15:00:23.578Z,240
2017-07-14T15:01:04.820Z,236
2017-07-14T15:01:45.636Z,252
2017-07-14T15:02:26.460Z,276
2017-07-14T15:03:07.374Z,340
2017-07-14T15:03:47.918Z,424
2017-07-14T15:04:28.458Z,536
2017-07-14T15:05:09.012Z,644
2017-07-14T15:05:49.572Z,688
2017-07-14T15:06:30.115Z,708
2017-07-14T15:07:10.650Z,720
2017-07-14T15:07:51.197Z,788
2017-07-14T15:08:31.737Z,848
2017-07-14T15:09:12.277Z,928
2017-07-14T15:09:52.820Z,1016
2017-07-14T15:10:33.362Z,1072
2017-07-14T15:11:13.908Z,1040
2017-07-14T15:11:54.450Z,1020
2017-07-14T15:12:34.992Z,972
2017-07-14T15:13:15.534Z,920
2017-07-14T15:13:56.079Z,876
2017-07-14T15:14:36.629Z,844
2017-07-14T15:15:17.169Z,828
2017-07-14T15:15:57.716Z,808
2017-07-14T15:16:38.263Z,808
2017-07-14T15:17:18.800Z,824
2017-07-14T15:17:59.349Z,840
2017-07-14T15:18:39.887Z,800
2017-07-14T15:19:20.426Z,724
2017-07-14T15:20:00.970Z,612
2017-07-14T15:20:41.505Z,528
2017-07-14T15:21:22.045Z,476
2017-07-14T15:22:02.587Z,476
2017-07-14T15:22:43.134Z,520
2017-07-14T15:23:23.673Z,552
2017-07-14T15:24:04.229Z,588
2017-07-14T15:24:44.780Z,628
2017-07-14T15:25:25.319Z,692
2017-07-14T15:26:05.882Z,704
2017-07-14T15:26:46.424Z,664
2017-07-14T15:27:27.017Z,652
2017-07-14T15:28:07.531Z,636
2017-07-14T15:28:48.065Z,588
2017-07-14T15:29:28.643Z,544
2017-07-14T15:30:09.183Z,504
2017-07-14T15:30:49.770Z,484
2017-07-14T15:31:30.367Z,456
2017-07-14T15:32:10.974Z,512
2017-07-14T15:32:51.573Z,552
2017-07-14T15:33:32.100Z,580
2017-07-14T15:34:12.652Z,652
2017-07-14T15:34:53.194Z,808
2017-07-14T15:35:33.735Z,1116
2017-07-14T15:36:14.281Z,1332
2017-07-14T15:36:54.824Z,1460
2017-07-14T15:37:35.371Z,1584
2017-07-14T15:38:15.912Z,1744
2017-07-14T15:38:56.453Z,1748
2017-07-14T15:39:36.998Z,1572
2017-07-14T15:40:17.561Z,1400
2017-07-14T15:40:58.101Z,1456
2017-07-14T15:41:38.669Z,1760
2017-07-14T15:42:19.214Z,2072
2017-07-14T15:42:59.754Z,2204
2017-07-14T15:43:40.304Z,2112
2017-07-14T15:44:20.851Z,1932
2017-07-14T15:45:01.374Z,1748
2017-07-14T15:45:41.914Z,1552
2017-07-14T15:46:22.457Z,1464
2017-07-14T15:47:03.014Z,1408
2017-07-14T15:47:43.557Z,1328
2017-07-14T15:48:24.098Z,1268
2017-07-14T15:49:04.636Z,1260
2017-07-14T15:49:45.210Z,1364
2017-07-14T15:50:25.746Z,1540
2017-07-14T15:51:06.333Z,1608
2017-07-14T15:51:46.882Z,1608
2017-07-14T15:52:27.423Z,1592
2017-07-14T15:53:07.965Z,1616
2017-07-14T15:53:48.516Z,1668
2017-07-14T15:54:29.054Z,1748
2017-07-14T15:55:09.584Z,1872
2017-07-14T15:55:50.128Z,2104
2017-07-14T15:56:30.670Z,2324
2017-07-14T15:57:11.209Z,2472
2017-07-14T15:57:51.758Z,2640
2017-07-14T15:58:32.299Z,2716
2017-07-14T15:59:12.842Z,2712
2017-07-14T15:59:53.389Z,2732
2017-07-14T16:00:33.931Z,2768
2017-07-14T16:01:14.488Z,2860
2017-07-14T16:01:55.033Z,2900
2017-07-14T16:02:35.584Z,2792
2017-07-14T16:03:16.124Z,2504
2017-07-14T16:03:56.666Z,2260
2017-07-14T16:04:37.215Z,2068
2017-07-14T16:05:17.769Z,1960
2017-07-14T16:05:58.319Z,2008
2017-07-14T16:06:38.860Z,2036
2017-07-14T16:07:19.388Z,2064
2017-07-14T16:07:59.934Z,2008
2017-07-14T16:08:40.503Z,2020
2017-07-14T16:09:21.047Z,2016
2017-07-14T16:10:01.590Z,1888
2017-07-14T16:10:42.137Z,1992
2017-07-14T16:11:22.689Z,1992
2017-07-14T16:12:03.224Z,1944
2017-07-14T16:12:43.808Z,1956
2017-07-14T16:13:24.344Z,2104
2017-07-14T16:14:04.889Z,2272
2017-07-14T16:14:45.439Z,2252
2017-07-14T16:15:25.990Z,2152
2017-07-14T16:16:06.523Z,1988
2017-07-14T16:16:47.106Z,1740
2017-07-14T16:17:27.660Z,1676
2017-07-14T16:18:08.201Z,1888
2017-07-14T16:18:48.749Z,2040
2017-07-14T16:19:29.293Z,1968
2017-07-14T16:20:09.830Z,1752
2017-07-14T16:20:50.377Z,1560
2017-07-14T16:21:30.914Z,1444
2017-07-14T16:22:11.451Z,1332
2017-07-14T16:22:52.000Z,1416
2017-07-14T16:23:32.537Z,1400
2017-07-14T16:24:13.050Z,1560
2017-07-14T16:24:53.608Z,1888
2017-07-14T16:25:34.167Z,2304
2017-07-14T16:26:14.683Z,2812
2017-07-14T16:26:55.224Z,3224
2017-07-14T16:27:35.772Z,3452
2017-07-14T16:28:16.317Z,3300
2017-07-14T16:28:56.859Z,3196
2017-07-14T16:29:37.410Z,3460
2017-07-14T16:30:17.957Z,3412
2017-07-14T16:30:58.499Z,2860
2017-07-14T16:31:39.038Z,2896
2017-07-14T16:32:19.578Z,3092
2017-07-14T16:33:00.130Z,3028
2017-07-14T16:33:40.666Z,2908
2017-07-14T16:34:21.225Z,2692
2017-07-14T16:35:01.791Z,2744
2017-07-14T16:35:42.319Z,2772
2017-07-14T16:36:22.882Z,2648
2017-07-14T16:37:03.420Z,1856
2017-07-14T16:37:43.963Z,2100
2017-07-14T16:38:24.485Z,2232
2017-07-14T16:39:05.030Z,2228
2017-07-14T16:39:45.577Z,2176
2017-07-14T16:40:26.118Z,1964
2017-07-14T16:41:06.658Z,1792
2017-07-14T16:41:47.208Z,1652
2017-07-14T16:42:27.726Z,1544
2017-07-14T16:43:08.292Z,1480
2017-07-14T16:43:48.827Z,1476
2017-07-14T16:44:29.368Z,1496
2017-07-14T16:45:09.904Z,1532
2017-07-14T16:45:50.443Z,1496
2017-07-14T16:46:30.982Z,1404
2017-07-14T16:47:11.519Z,1328
2017-07-14T16:47:52.064Z,1272
2017-07-14T16:48:32.607Z,1236
2017-07-14T16:49:13.148Z,1244
2017-07-14T16:49:53.688Z,1272
2017-07-14T16:50:34.243Z,1328
2017-07-14T16:51:14.783Z,1356
2017-07-14T16:51:55.325Z,1372
2017-07-14T16:52:35.866Z,1344
2017-07-14T16:53:16.399Z,1308
2017-07-14T16:53:56.939Z,1248
2017-07-14T16:54:37.483Z,1112
2017-07-14T16:55:18.331Z,1264
2017-07-14T16:55:58.902Z,1300
2017-07-14T16:56:39.441Z,1296
2017-07-14T16:57:19.984Z,1544
2017-07-14T16:58:00.719Z,1388
2017-07-14T16:58:41.541Z,1464
2017-07-14T16:59:22.364Z,1280
2017-07-14T17:00:03.208Z,1476
2017-07-14T17:00:43.823Z,1936
2017-07-14T17:01:24.365Z,1616
2017-07-14T17:02:04.910Z,1964
2017-07-14T17:02:45.447Z,1736
2017-07-14T17:03:25.986Z,1660
2017-07-14T17:04:06.527Z,1372
2017-07-14T17:04:47.068Z,1568
2017-07-14T17:05:27.612Z,1944
2017-07-14T17:06:08.156Z,1380
2017-07-14T17:06:48.685Z,996
2017-07-14T17:07:29.244Z,776
2017-07-14T17:08:09.788Z,628
2017-07-14T17:08:50.326Z,680
2017-07-14T17:09:30.869Z,884
2017-07-14T17:10:11.415Z,968
2017-07-14T17:10:51.951Z,884
2017-07-14T17:11:32.490Z,904
2017-07-14T17:12:13.032Z,680
2017-07-14T17:12:53.575Z,604
2017-07-14T17:13:34.129Z,376
2017-07-14T17:14:14.676Z,276
2017-07-14T17:14:55.205Z,472
2017-07-14T17:15:35.744Z,452
2017-07-14T17:16:16.310Z,480
2017-07-14T17:16:56.864Z,632
2017-07-14T17:17:37.399Z,776
2017-07-14T17:18:17.965Z,784
2017-07-14T17:18:58.502Z,780
2017-07-14T17:19:39.065Z,656
2017-07-14T17:20:19.612Z,684
2017-07-14T17:21:00.122Z,668
2017-07-14T17:21:40.665Z,688
2017-07-14T17:22:21.191Z,644
2017-07-14T17:23:03.444Z,588
2017-07-14T17:23:43.999Z,552
2017-07-14T17:24:24.553Z,420
2017-07-14T17:25:05.120Z,324
2017-07-14T17:25:45.644Z,484
2017-07-14T17:26:26.199Z,360
2017-07-14T17:27:06.761Z,244
2017-07-14T17:27:47.318Z,176
2017-07-14T17:28:27.848Z,164
2017-07-14T17:29:08.387Z,112
2017-07-14T17:29:49.015Z,92
2017-07-14T17:30:29.543Z,132
2017-07-14T17:31:10.092Z,116
2017-07-14T17:31:50.612Z,132
2017-07-14T17:32:31.180Z,172
2017-07-14T17:33:11.733Z,216
2017-07-14T17:33:52.257Z,244
2017-07-14T17:34:32.885Z,252
2017-07-14T17:35:13.414Z,272
2017-07-14T17:35:53.952Z,312
2017-07-14T17:36:34.500Z,384
2017-07-14T17:37:15.051Z,476
2017-07-14T17:37:55.596Z,512
2017-07-14T17:38:36.135Z,548
2017-07-14T17:39:16.684Z,544
2017-07-14T17:39:57.226Z,532
2017-07-14T17:40:37.765Z,516
2017-07-14T17:41:18.345Z,484
2017-07-14T17:41:58.867Z,484
2017-07-14T17:42:39.407Z,492
2017-07-14T17:43:19.944Z,516
2017-07-14T17:44:00.477Z,548
2017-07-14T17:44:41.015Z,592
2017-07-14T17:45:21.629Z,612
2017-07-14T17:46:02.272Z,652
2017-07-14T17:46:42.799Z,628
2017-07-14T17:47:23.331Z,552
2017-07-14T17:48:03.870Z,484
2017-07-14T17:48:44.411Z,540
2017-07-14T17:49:24.962Z,576
2017-07-14T17:50:05.500Z,652
2017-07-14T17:50:46.349Z,876
2017-07-14T17:51:26.931Z,884
2017-07-14T17:52:07.469Z,1036
2017-07-14T17:52:48.004Z,1260
2017-07-14T17:53:28.546Z,1160
2017-07-14T17:54:09.085Z,1084
2017-07-14T17:54:49.646Z,1056
2017-07-14T17:55:30.197Z,1020
2017-07-14T17:56:10.739Z,960
2017-07-14T17:56:51.279Z,960
2017-07-14T17:57:31.817Z,936
2017-07-14T17:58:12.357Z,944
2017-07-14T17:58:52.898Z,1012
2017-07-14T17:59:33.437Z,1104
2017-07-14T18:00:13.977Z,1120
2017-07-14T18:00:54.521Z,1096
2017-07-14T18:01:35.064Z,1060
2017-07-14T18:02:15.637Z,1020
2017-07-14T18:02:56.173Z,1084
2017-07-14T18:03:36.723Z,1200
2017-07-14T18:04:17.281Z,1164
2017-07-14T18:04:57.820Z,1016
2017-07-14T18:05:38.352Z,932
2017-07-14T18:06:18.900Z,816
2017-07-14T18:06:59.447Z,708
2017-07-14T18:07:39.983Z,656
2017-07-14T18:08:20.522Z,620
2017-07-14T18:09:01.060Z,580
2017-07-14T18:09:41.593Z,548
2017-07-14T18:10:22.138Z,532
2017-07-14T18:11:02.683Z,524
2017-07-14T18:11:43.264Z,508
2017-07-14T18:12:23.801Z,500
2017-07-14T18:13:04.340Z,504
2017-07-14T18:13:44.884Z,512
2017-07-14T18:14:25.448Z,512
2017-07-14T18:15:06.083Z,540
2017-07-14T18:15:46.628Z,544
2017-07-14T18:16:27.160Z,520
2017-07-14T18:17:07.692Z,532
2017-07-14T18:17:48.233Z,576
2017-07-14T18:18:28.771Z,620
2017-07-14T18:19:09.313Z,644
2017-07-14T18:19:49.956Z,660
2017-07-14T18:20:30.640Z,656
2017-07-14T18:21:11.054Z,652
2017-07-14T18:21:51.589Z,656
2017-07-14T18:22:32.126Z,660
2017-07-14T18:23:12.696Z,652
2017-07-14T18:23:53.224Z,640
2017-07-14T18:24:33.773Z,632
2017-07-14T18:25:14.325Z,644
2017-07-14T18:25:54.861Z,684
2017-07-14T18:26:35.406Z,712
2017-07-14T18:27:15.936Z,716
2017-07-14T18:27:56.475Z,720
2017-07-14T18:28:37.015Z,732
2017-07-14T18:29:17.555Z,744
2017-07-14T18:29:58.094Z,764
2017-07-14T18:30:38.628Z,780
2017-07-14T18:31:19.174Z,792
2017-07-14T18:31:59.702Z,796
2017-07-14T18:32:40.252Z,784
2017-07-14T18:33:20.796Z,768
2017-07-14T18:34:01.339Z,768
2017-07-14T18:34:41.893Z,776
2017-07-14T18:35:22.436Z,788
2017-07-14T18:36:02.975Z,804
2017-07-14T18:36:43.493Z,832
2017-07-14T18:37:24.066Z,880
2017-07-14T18:38:04.587Z,944
2017-07-14T18:38:45.115Z,1036
2017-07-14T18:39:25.647Z,1120
2017-07-14T18:40:06.187Z,1200
2017-07-14T18:40:46.729Z,1272
2017-07-14T18:41:27.266Z,1292
2017-07-14T18:42:07.807Z,1264
2017-07-14T18:42:48.376Z,1192
2017-07-14T18:43:28.918Z,1136
2017-07-14T18:44:09.450Z,1084
2017-07-14T18:44:50.008Z,1032
2017-07-14T18:45:30.547Z,964
2017-07-14T18:46:11.089Z,880
2017-07-14T18:46:51.635Z,836
2017-07-14T18:47:32.168Z,872
2017-07-14T18:48:12.707Z,868
2017-07-14T18:48:53.514Z,756
2017-07-14T18:49:34.167Z,772
2017-07-14T18:50:14.811Z,772
2017-07-14T18:50:55.355Z,740
2017-07-14T18:51:35.892Z,640
2017-07-14T18:52:16.434Z,584
2017-07-14T18:52:56.966Z,560
2017-07-14T18:53:37.509Z,552
2017-07-14T18:54:18.052Z,560
2017-07-14T18:54:58.587Z,552
2017-07-14T18:55:39.120Z,564
2017-07-14T18:56:19.657Z,544
2017-07-14T18:57:00.195Z,520
2017-07-14T18:57:40.733Z,500
2017-07-14T18:58:21.273Z,524
2017-07-14T18:59:01.814Z,496
2017-07-14T18:59:42.362Z,456
2017-07-14T19:00:22.904Z,436
2017-07-14T19:01:03.456Z,428
2017-07-14T19:01:43.983Z,416
2017-07-14T19:02:24.527Z,412
2017-07-14T19:03:05.058Z,392
2017-07-14T19:03:45.581Z,376
2017-07-14T19:04:26.121Z,372
2017-07-14T19:05:06.679Z,372
2017-07-14T19:05:47.220Z,372
2017-07-14T19:06:27.761Z,360
2017-07-14T19:07:08.312Z,352
2017-07-14T19:07:48.853Z,360
2017-07-14T19:08:29.390Z,352
2017-07-14T19:09:09.989Z,344
2017-07-14T19:09:50.647Z,320
2017-07-14T19:10:31.364Z,304
2017-07-14T19:11:12.079Z,296
2017-07-14T19:11:52.682Z,288
2017-07-14T19:12:33.202Z,292
2017-07-14T19:13:14.017Z,304
2017-07-14T19:13:54.584Z,304
2017-07-14T19:14:35.126Z,304
2017-07-14T19:15:15.774Z,288
2017-07-14T19:15:56.499Z,272
2017-07-14T19:16:37.290Z,268
2017-07-14T19:17:18.016Z,264
2017-07-14T19:17:58.672Z,260
2017-07-14T19:18:39.261Z,252
2017-07-14T19:19:19.953Z,248
2017-07-14T19:20:00.676Z,240
2017-07-14T19:20:41.416Z,228
2017-07-14T19:21:22.148Z,220
2017-07-14T19:22:02.802Z,212
2017-07-14T19:22:43.532Z,208
2017-07-14T19:23:24.369Z,200
2017-07-14T19:24:05.132Z,188
2017-07-14T19:24:45.740Z,188
2017-07-14T19:25:26.274Z,188
2017-07-14T19:26:06.919Z,176
2017-07-14T19:26:47.545Z,176
2017-07-14T19:27:28.251Z,168
2017-07-14T19:28:08.883Z,164
2017-07-14T19:28:49.561Z,156
2017-07-14T19:29:30.171Z,148
2017-07-14T19:30:10.719Z,140
2017-07-14T19:30:51.383Z,136
2017-07-14T19:31:31.929Z,136
2017-07-14T19:32:12.588Z,128
2017-07-14T19:32:53.275Z,128
2017-07-14T19:33:33.872Z,120
2017-07-14T19:34:14.555Z,116
2017-07-14T19:34:55.320Z,108
2017-07-14T19:35:35.873Z,108
2017-07-14T19:36:16.463Z,100
2017-07-14T19:36:57.084Z,96
2017-07-14T19:37:37.716Z,92
2017-07-14T19:38:18.367Z,84
2017-07-14T19:38:58.959Z,80
2017-07-14T19:39:39.519Z,76
2017-07-14T19:40:20.236Z,68
2017-07-14T19:41:00.934Z,68
2017-07-14T19:41:41.745Z,60
2017-07-14T19:42:22.522Z,60
2017-07-14T19:43:03.100Z,56
2017-07-14T19:43:43.739Z,52
2017-07-14T19:44:24.556Z,48
2017-07-14T19:45:05.136Z,48
2017-07-14T19:45:45.740Z,44
2017-07-14T19:46:26.284Z,36
2017-07-14T19:47:06.927Z,36
2017-07-14T19:47:47.543Z,36
2017-07-14T19:48:28.222Z,32
2017-07-14T19:49:08.876Z,32
2017-07-14T19:49:49.484Z,28
2017-07-14T19:50:30.066Z,28
2017-07-14T19:51:10.723Z,24
2017-07-14T19:51:51.399Z,24
2017-07-14T19:52:32.157Z,20
2017-07-14T19:53:12.759Z,20
2017-07-14T19:53:53.367Z,20
2017-07-14T19:54:34.039Z,16
2017-07-14T19:55:14.619Z,16
2017-07-14T19:55:55.193Z,16
2017-07-14T19:56:35.720Z,12
2017-07-14T19:57:16.258Z,12
2017-07-14T19:57:56.805Z,8
2017-07-14T19:58:37.348Z,12
2017-07-14T19:59:17.891Z,8
2017-07-14T19:59:58.428Z,8
2017-07-14T20:00:38.968Z,8
2017-07-14T20:01:19.512Z,8
2017-07-14T20:02:00.051Z,4
2017-07-14T20:02:40.591Z,8
2017-07-14T20:03:21.129Z,8
2017-07-14T20:04:01.667Z,4
2017-07-14T20:04:42.208Z,4
2017-07-14T20:05:22.756Z,4
2017-07-14T20:06:03.299Z,4
2017-07-14T20:06:43.840Z,4
2017-07-14T20:07:24.376Z,4
2017-07-14T20:08:04.918Z,4
2017-07-14T20:08:45.456Z,4
2017-07-14T20:09:25.996Z,0
2017-07-14T20:10:06.537Z,0
2017-07-14T20:10:47.075Z,0
2017-07-14T20:11:27.612Z,0
2017-07-14T20:12:08.154Z,0
2017-07-14T20:12:48.693Z,0
2017-07-14T20:13:29.231Z,0
2017-07-14T20:14:09.771Z,0
2017-07-14T20:14:50.313Z,0
2017-07-14T20:15:30.849Z,0
2017-07-14T20:16:11.384Z,0